Time;durP1;ratioP1;P1;durP2;ratioP2;P2;SDS_P1;SDS_P2;PMS_P1;PMS_P2;Temp;Humidity;BMP_temperature;BMP_pressure;BME280_temperature;BME280_humidity;BME280_pressure;Samples;Min_cycle;Max_cycle;Signal;HPM_P1;HPM_P2
2022/09/26 00:01:36;;;;;;;2.30;2.10;;;9.70;99.90;;;;;;4927507;28;20048;-54
2022/09/26 00:04:26;;;;;;;2.60;2.25;;;9.70;99.90;;;;;;4926692;28;20038;-54
2022/09/26 00:06:58;;;;;;;5.40;2.42;;;9.70;99.90;;;;;;4928152;28;20043;-54
2022/09/26 00:09:27;;;;;;;2.75;2.30;;;9.60;99.90;;;;;;4926309;28;20047;-54
2022/09/26 00:11:53;;;;;;;2.75;2.30;;;9.60;99.90;;;;;;4941908;28;20372;-53
2022/09/26 00:14:22;;;;;;;;;;;9.60;99.90;;;;;;4920733;28;20039;-54
2022/09/26 00:16:49;;;;;;;2.17;1.85;;;9.60;99.90;;;;;;4940461;28;20685;-53
2022/09/26 00:19:17;;;;;;;2.53;1.75;;;9.60;99.90;;;;;;4926676;28;20867;-53
2022/09/26 00:21:44;;;;;;;2.40;2.00;;;9.50;99.90;;;;;;4927517;28;20121;-54
2022/09/26 00:24:11;;;;;;;6.35;2.25;;;9.60;99.90;;;;;;4909729;28;20506;-54
2022/09/26 00:26:38;;;;;;;3.35;2.60;;;9.60;99.90;;;;;;4926963;28;20061;-54
2022/09/26 00:29:06;;;;;;;;;;;9.60;99.90;;;;;;4928125;28;20948;-52
2022/09/26 00:31:37;;;;;;;2.50;1.95;;;9.50;99.90;;;;;;4940276;28;20502;-53
2022/09/26 00:34:04;;;;;;;2.63;2.13;;;9.50;99.90;;;;;;4940860;28;20057;-53
2022/09/26 00:36:31;;;;;;;1.88;1.55;;;9.50;99.90;;;;;;4926791;28;20209;-53
2022/09/26 00:39:06;;;;;;;2.30;2.10;;;9.50;99.90;;;;;;4926499;28;20310;-54
2022/09/26 00:41:34;;;;;;;3.25;2.40;;;9.50;99.90;;;;;;4940978;28;20579;-54
2022/09/26 00:44:02;;;;;;;2.60;2.40;;;9.40;99.90;;;;;;4926398;28;20140;-54
2022/09/26 00:46:37;;;;;;;3.17;2.28;;;9.40;99.90;;;;;;4927585;28;20563;-52
2022/09/26 00:49:30;;;;;;;2.90;2.50;;;9.40;99.90;;;;;;4926160;28;20042;-54
2022/09/26 00:52:08;;;;;;;4.97;2.10;;;9.40;99.90;;;;;;4918558;28;20061;-53
2022/09/26 00:54:39;;;;;;;3.47;2.50;;;9.40;99.90;;;;;;4926263;28;20564;-51
2022/09/26 00:57:12;;;;;;;3.10;2.80;;;9.40;99.90;;;;;;4911679;28;20140;-53
2022/09/26 00:59:45;;;;;;;2.60;2.35;;;9.40;99.90;;;;;;4924856;28;20135;-53
2022/09/26 01:02:12;;;;;;;2.85;2.35;;;9.40;99.90;;;;;;4897131;28;20555;-54
2022/09/26 01:04:41;;;;;;;2.58;2.38;;;9.40;99.90;;;;;;4925712;28;20045;-53
2022/09/26 01:07:15;;;;;;;4.28;3.35;;;9.40;99.90;;;;;;4917806;28;20046;-52
2022/09/26 01:09:43;;;;;;;2.90;2.58;;;9.40;99.90;;;;;;4923972;28;20121;-53
2022/09/26 01:12:10;;;;;;;3.75;3.05;;;9.40;99.90;;;;;;4925660;28;20363;-53
2022/09/26 01:14:39;;;;;;;5.57;3.20;;;9.30;99.90;;;;;;4918982;28;20226;-52
2022/09/26 01:17:07;;;;;;;5.10;3.22;;;9.30;99.90;;;;;;4911941;28;20046;-53
2022/09/26 01:20:08;;;;;;;3.20;2.90;;;9.30;99.90;;;;;;4923301;28;20092;-53
2022/09/26 01:22:57;;;;;;;5.43;3.58;;;9.20;99.90;;;;;;4925106;28;20773;-53
2022/09/26 01:25:43;;;;;;;3.55;3.22;;;9.20;99.90;;;;;;4939660;28;20925;-53
2022/09/26 01:28:29;;;;;;;3.30;2.72;;;9.20;99.90;;;;;;4918747;28;20619;-53
2022/09/26 01:31:12;;;;;;;4.88;3.50;;;9.10;99.90;;;;;;4923362;28;20061;-53
2022/09/26 01:33:53;;;;;;;3.50;3.13;;;9.10;99.90;;;;;;4913937;28;20061;-53
2022/09/26 01:36:29;;;;;;;5.80;4.85;;;9.20;99.90;;;;;;4925107;28;20172;-54
2022/09/26 01:39:15;;;;;;;13.88;4.10;;;9.20;99.90;;;;;;4923965;28;20496;-53
2022/09/26 01:42:03;;;;;;;7.53;4.60;;;9.20;99.90;;;;;;4940191;28;20754;-53
2022/09/26 01:44:47;;;;;;;7.20;4.22;;;9.20;99.90;;;;;;4919668;28;20062;-53
2022/09/26 01:47:22;;;;;;;6.72;4.20;;;9.20;99.90;;;;;;4926361;28;20121;-53
2022/09/26 01:50:18;;;;;;;4.18;3.78;;;9.10;99.90;;;;;;4925233;28;20578;-53
2022/09/26 01:53:00;;;;;;;8.88;4.85;;;9.20;99.90;;;;;;4921596;28;20053;-53
2022/09/26 01:55:33;;;;;;;7.30;5.68;;;9.20;99.90;;;;;;4921388;28;20729;-52
2022/09/26 01:58:06;;;;;;;6.60;5.50;;;9.20;99.90;;;;;;4939199;28;20046;-52
2022/09/26 02:00:36;;;;;;;7.30;6.05;;;9.20;99.90;;;;;;4922645;28;20102;-52
2022/09/26 02:03:09;;;;;;;10.35;6.00;;;9.20;99.90;;;;;;4918489;28;20057;-53
2022/09/26 02:05:43;;;;;;;6.65;5.50;;;9.20;99.90;;;;;;4925928;28;20203;-53
2022/09/26 02:08:23;;;;;;;4.85;4.38;;;9.20;99.90;;;;;;4919380;28;20219;-54
2022/09/26 02:11:11;;;;;;;5.22;4.57;;;9.20;99.90;;;;;;4923723;28;20414;-53
2022/09/26 02:14:03;;;;;;;4.35;3.95;;;9.20;99.90;;;;;;4914796;28;20042;-52
2022/09/26 02:16:48;;;;;;;4.47;3.40;;;9.20;99.90;;;;;;4920098;28;20324;-53
2022/09/26 02:19:24;;;;;;;3.67;3.33;;;9.20;99.90;;;;;;4920998;28;20304;-53
2022/09/26 02:21:52;;;;;;;4.93;4.13;;;9.20;99.90;;;;;;4920896;28;20053;-53
2022/09/26 02:24:21;;;;;;;4.10;3.60;;;9.20;99.90;;;;;;4911662;28;20303;-53
2022/09/26 02:26:49;;;;;;;4.38;3.30;;;9.20;99.90;;;;;;4899260;28;20050;-54
2022/09/26 02:29:19;;;;;;;6.43;3.03;;;9.20;99.90;;;;;;4910876;28;20311;-53
2022/09/26 02:32:14;;;;;;;3.35;2.80;;;9.10;99.90;;;;;;4922505;28;20050;-53
2022/09/26 02:34:44;;;;;;;3.30;2.90;;;9.10;99.90;;;;;;4920663;28;20054;-52
2022/09/26 02:37:12;;;;;;;2.97;2.67;;;9.10;99.90;;;;;;4914118;28;20207;-53
2022/09/26 02:39:44;;;;;;;3.72;2.85;;;9.10;99.90;;;;;;4922640;28;20042;-53
2022/09/26 02:42:24;;;;;;;4.25;3.67;;;9.10;99.90;;;;;;4897723;28;20327;-56
2022/09/26 02:45:11;;;;;;;3.17;2.40;;;9.00;99.90;;;;;;4936855;28;20076;-52
2022/09/26 02:48:07;;;;;;;3.88;2.67;;;9.00;99.90;;;;;;4940011;28;20047;-52
2022/09/26 02:50:57;;;;;;;3.67;2.28;;;8.90;99.90;;;;;;4903421;28;20156;-53
2022/09/26 02:54:02;;;;;;;4.57;3.33;;;8.90;99.90;;;;;;4936039;28;20559;-55
2022/09/26 02:56:57;;;;;;;3.92;3.47;;;8.90;99.90;;;;;;4926061;28;20073;-54
2022/09/26 03:00:04;;;;;;;8.32;3.20;;;8.90;99.90;;;;;;4928681;28;20142;-54
2022/09/26 03:02:49;;;;;;;7.93;4.33;;;8.80;99.90;;;;;;4899848;28;20035;-53
2022/09/26 03:05:22;;;;;;;7.15;4.28;;;8.80;99.90;;;;;;4913345;28;20473;-52
2022/09/26 03:07:55;;;;;;;7.38;5.15;;;8.80;99.90;;;;;;4879192;28;20414;-53
2022/09/26 03:10:26;;;;;;;8.48;4.35;;;8.80;99.90;;;;;;4918335;28;20759;-51
2022/09/26 03:12:54;;;;;;;6.72;5.03;;;8.80;99.90;;;;;;4919831;28;20347;-53
2022/09/26 03:15:23;;;;;;;7.45;5.57;;;8.80;99.90;;;;;;4924609;28;20238;-53
2022/09/26 03:17:53;;;;;;;9.10;5.25;;;8.80;99.90;;;;;;4918667;28;20047;-53
2022/09/26 03:20:23;;;;;;;7.90;6.00;;;8.80;99.90;;;;;;4924947;28;20069;-53
2022/09/26 03:22:52;;;;;;;11.60;6.32;;;8.80;99.90;;;;;;4942950;28;20050;-53
2022/09/26 03:25:24;;;;;;;;;;;8.80;99.90;;;;;;4926521;28;20042;-54
2022/09/26 03:28:01;;;;;;;7.47;5.50;;;8.80;99.90;;;;;;4916362;28;19932;-53
2022/09/26 03:30:28;;;;;;;11.18;5.75;;;8.80;99.90;;;;;;4926615;28;20366;-53
2022/09/26 03:33:20;;;;;;;7.47;5.45;;;8.80;99.90;;;;;;4920738;28;20061;-53
2022/09/26 03:35:47;;;;;;;7.00;5.47;;;8.80;99.90;;;;;;4923552;28;20064;-54
2022/09/26 03:38:14;;;;;;;5.88;5.05;;;8.80;99.90;;;;;;4925661;28;20262;-51
2022/09/26 03:40:48;;;;;;;5.20;4.10;;;8.80;99.90;;;;;;4921389;28;20216;-53
2022/09/26 03:43:35;;;;;;;5.87;4.50;;;8.90;99.90;;;;;;4927435;28;20049;-53
2022/09/26 03:46:04;;;;;;;5.85;4.95;;;8.90;99.90;;;;;;4941906;28;20275;-54
2022/09/26 03:48:33;;;;;;;4.43;4.03;;;8.90;99.90;;;;;;4923254;28;20228;-54
2022/09/26 03:51:09;;;;;;;4.95;4.40;;;8.90;99.90;;;;;;4921275;28;20073;-53
2022/09/26 03:53:39;;;;;;;4.90;4.18;;;8.90;99.90;;;;;;4908314;28;20153;-53
2022/09/26 03:56:16;;;;;;;5.55;4.10;;;9.00;99.90;;;;;;4920255;28;20227;-52
2022/09/26 03:58:44;;;;;;;6.78;5.43;;;9.00;99.90;;;;;;4919455;28;20572;-54
2022/09/26 04:01:17;;;;;;;6.47;5.30;;;9.00;99.90;;;;;;4916426;28;20047;-54
2022/09/26 04:03:46;;;;;;;4.88;4.38;;;9.00;99.90;;;;;;4925438;28;20340;-53
2022/09/26 04:06:18;;;;;;;4.70;4.13;;;9.00;99.90;;;;;;4920108;28;20047;-53
2022/09/26 04:08:49;;;;;;;6.35;5.35;;;9.00;99.90;;;;;;4928146;28;20212;-56
2022/09/26 04:11:19;;;;;;;9.10;5.15;;;9.00;99.90;;;;;;4925757;28;20141;-53
2022/09/26 04:13:48;;;;;;;10.00;6.22;;;9.00;99.90;;;;;;4942868;28;20050;-52
2022/09/26 04:16:22;;;;;;;11.50;5.93;;;9.00;99.90;;;;;;4915574;28;20070;-52
2022/09/26 04:18:59;;;;;;;9.52;5.20;;;9.00;99.90;;;;;;4924442;28;20601;-53
2022/09/26 04:21:28;;;;;;;6.25;5.28;;;9.00;99.90;;;;;;4926232;28;20054;-53
2022/09/26 04:23:57;;;;;;;6.65;5.10;;;9.00;99.90;;;;;;4927836;28;20042;-54
2022/09/26 04:26:24;;;;;;;6.10;5.50;;;9.00;99.90;;;;;;4920140;28;20211;-55
2022/09/26 04:28:55;;;;;;;5.90;5.10;;;9.00;99.90;;;;;;4945154;28;20433;-54
2022/09/26 04:31:31;;;;;;;6.75;4.82;;;9.00;99.90;;;;;;4940228;28;20070;-54
2022/09/26 04:34:08;;;;;;;6.20;5.18;;;9.00;99.90;;;;;;4924786;28;20046;-53
2022/09/26 04:36:35;;;;;;;6.05;5.22;;;9.00;99.90;;;;;;4918467;28;20188;-54
2022/09/26 04:39:03;;;;;;;6.78;5.68;;;9.00;99.90;;;;;;4926672;28;20193;-52
2022/09/26 04:41:30;;;;;;;7.32;5.60;;;9.00;99.90;;;;;;4927439;28;20053;-54
2022/09/26 04:44:00;;;;;;;15.40;6.88;;;9.10;99.90;;;;;;4926667;28;20042;-54
2022/09/26 04:46:30;;;;;;;6.93;5.60;;;9.00;99.90;;;;;;4945821;28;20051;-54
2022/09/26 04:49:00;;;;;;;7.38;5.57;;;9.00;99.90;;;;;;4922967;28;20085;-53
2022/09/26 04:51:28;;;;;;;13.00;7.88;;;9.00;99.90;;;;;;4921795;28;20047;-53
2022/09/26 04:53:56;;;;;;;9.52;7.35;;;9.00;99.90;;;;;;4916799;28;20355;-54
2022/09/26 04:56:28;;;;;;;10.07;7.00;;;9.00;99.90;;;;;;4920218;28;20039;-53
2022/09/26 04:58:57;;;;;;;9.40;7.00;;;9.00;99.90;;;;;;4918187;28;20039;-53
2022/09/26 05:01:27;;;;;;;12.15;8.73;;;9.00;99.90;;;;;;4929321;28;20211;-54
2022/09/26 05:04:14;;;;;;;12.45;8.18;;;8.90;99.90;;;;;;4927278;28;20323;-51
2022/09/26 05:06:41;;;;;;;12.52;9.50;;;8.90;99.90;;;;;;4940434;28;20605;-53
2022/09/26 05:09:19;;;;;;;12.50;9.63;;;8.90;99.90;;;;;;4925089;28;20034;-53
2022/09/26 05:12:09;;;;;;;15.90;10.60;;;8.80;99.90;;;;;;4920667;28;20886;-54
2022/09/26 05:14:37;;;;;;;13.85;10.45;;;8.80;99.90;;;;;;4922271;28;21021;-54
2022/09/26 05:17:05;;;;;;;15.00;10.27;;;8.80;99.90;;;;;;4897689;28;20054;-54
2022/09/26 05:19:32;;;;;;;16.88;11.05;;;8.70;99.90;;;;;;4935455;28;20351;-52
2022/09/26 05:22:23;;;;;;;13.93;10.82;;;8.70;99.90;;;;;;4922096;28;20301;-53
2022/09/26 05:27:37;;;;;;;16.48;10.77;;;8.70;99.90;;;;;;4915202;28;20250;-53
2022/09/26 05:30:04;;;;;;;14.10;10.95;;;8.60;99.90;;;;;;4925135;28;20491;-54
2022/09/26 05:32:31;;;;;;;18.52;10.38;;;8.70;99.90;;;;;;4924972;28;20034;-55
2022/09/26 05:34:58;;;;;;;11.18;7.63;;;8.70;99.90;;;;;;4940472;28;20583;-53
2022/09/26 05:37:28;;;;;;;12.18;8.73;;;8.70;99.90;;;;;;4924092;28;20046;-53
2022/09/26 05:43:01;;;;;;;14.30;9.50;;;8.70;99.90;;;;;;4870901;28;20510;-50
2022/09/26 05:45:30;;;;;;;13.85;10.80;;;8.70;99.90;;;;;;4929539;28;20062;-55
2022/09/26 05:47:59;;;;;;;12.68;9.65;;;8.70;99.90;;;;;;4940912;28;20750;-53
2022/09/26 05:50:26;;;;;;;13.43;9.52;;;8.70;99.90;;;;;;4915361;28;20216;-54
2022/09/26 05:53:01;;;;;;;12.70;10.23;;;8.80;99.90;;;;;;4926635;28;20240;-52
2022/09/26 05:55:29;;;;;;;12.93;7.63;;;8.80;99.90;;;;;;4913164;28;20464;-53
2022/09/26 05:58:19;;;;;;;11.23;7.97;;;8.80;99.90;;;;;;4911679;28;20050;-52
2022/09/26 06:01:10;;;;;;;12.73;8.57;;;8.90;99.90;;;;;;4924755;28;20057;-54
2022/09/26 06:03:40;;;;;;;11.27;7.93;;;8.90;99.90;;;;;;4918430;28;20125;-52
2022/09/26 06:06:17;;;;;;;10.60;7.22;;;8.90;99.90;;;;;;4919095;28;20057;-53
2022/09/26 06:08:46;;;;;;;10.15;7.22;;;9.00;99.90;;;;;;4933723;28;20049;-53
2022/09/26 06:11:29;;;;;;;10.23;7.65;;;9.00;99.90;;;;;;4925372;28;20053;-57
2022/09/26 06:13:59;;;;;;;8.88;7.13;;;9.10;99.90;;;;;;4925573;28;20086;-54
2022/09/26 06:16:27;;;;;;;10.20;7.40;;;9.10;99.90;;;;;;4918731;28;20220;-55
2022/09/26 06:18:54;;;;;;;11.82;7.65;;;9.10;99.90;;;;;;4914583;28;20232;-54
2022/09/26 06:21:22;;;;;;;7.60;6.05;;;9.20;99.90;;;;;;4913029;28;20034;-55
2022/09/26 06:23:57;;;;;;;10.50;8.15;;;9.20;99.90;;;;;;4939002;28;20355;-55
2022/09/26 06:26:28;;;;;;;9.15;7.10;;;9.30;99.90;;;;;;4910853;28;20065;-55
2022/09/26 06:28:58;;;;;;;11.65;7.70;;;9.20;99.90;;;;;;4902564;28;20047;-55
2022/09/26 06:31:27;;;;;;;9.05;6.60;;;9.30;99.90;;;;;;4938117;28;20149;-55
2022/09/26 06:34:17;;;;;;;8.82;7.30;;;9.30;99.90;;;;;;4883914;28;20164;-54
2022/09/26 06:36:50;;;;;;;11.40;7.95;;;9.40;99.90;;;;;;4904519;28;20223;-54
2022/09/26 06:39:17;;;;;;;;;;;9.40;99.90;;;;;;4921781;28;20043;-52
2022/09/26 06:41:46;;;;;;;8.52;6.65;;;9.50;99.90;;;;;;4919382;28;20076;-53
2022/09/26 06:44:33;;;;;;;7.30;6.27;;;9.50;99.90;;;;;;4915911;28;20583;-57
2022/09/26 06:47:13;;;;;;;11.18;8.07;;;9.50;99.90;;;;;;4937188;28;20054;-52
2022/09/26 06:49:41;;;;;;;7.70;6.43;;;9.60;99.90;;;;;;4922787;28;20078;-54
2022/09/26 06:52:21;;;;;;;10.23;7.15;;;9.60;99.90;;;;;;4898958;28;20195;-52
2022/09/26 06:54:48;;;;;;;7.30;6.03;;;9.60;99.90;;;;;;4922389;28;20610;-53
2022/09/26 06:57:15;;;;;;;9.30;8.00;;;9.60;99.90;;;;;;4923060;28;20129;-54
2022/09/26 06:59:43;;;;;;;8.10;7.30;;;9.70;99.90;;;;;;4923614;28;20057;-53
2022/09/26 07:02:20;;;;;;;9.50;6.88;;;9.70;99.90;;;;;;4924438;28;20047;-54
2022/09/26 07:05:01;;;;;;;8.65;6.55;;;9.70;99.90;;;;;;4922861;28;20053;-54
2022/09/26 07:07:41;;;;;;;7.10;5.75;;;9.70;99.90;;;;;;4924415;28;20043;-53
2022/09/26 07:10:17;;;;;;;9.68;5.57;;;9.70;99.90;;;;;;4921867;28;20379;-54
2022/09/26 07:12:59;;;;;;;5.63;4.63;;;9.70;99.90;;;;;;4923143;28;20541;-54
2022/09/26 07:15:29;;;;;;;6.28;4.28;;;9.60;99.90;;;;;;4926732;28;20101;-55
2022/09/26 07:18:01;;;;;;;4.45;3.90;;;9.60;99.90;;;;;;4939651;28;20050;-58
2022/09/26 07:20:47;;;;;;;4.47;3.50;;;9.60;99.90;;;;;;4921625;28;20215;-54
2022/09/26 07:23:38;;;;;;;6.68;5.10;;;9.60;99.90;;;;;;4913182;28;20458;-56
2022/09/26 07:26:05;;;;;;;;;;;9.60;99.90;;;;;;4911431;28;20483;-54
2022/09/26 07:28:33;;;;;;;5.57;4.57;;;9.60;99.90;;;;;;4927156;28;19987;-56
2022/09/26 07:31:01;;;;;;;5.35;4.85;;;9.60;99.90;;;;;;4922830;28;20621;-55
2022/09/26 07:33:45;;;;;;;10.50;5.68;;;9.60;99.90;;;;;;4908218;28;20038;-55
2022/09/26 07:36:14;;;;;;;5.95;4.63;;;9.60;99.90;;;;;;4915629;28;20054;-53
2022/09/26 07:38:42;;;;;;;6.57;5.20;;;9.60;99.90;;;;;;4931445;28;20314;-61
2022/09/26 07:41:10;;;;;;;6.50;5.20;;;9.70;99.90;;;;;;4937770;28;20066;-53
2022/09/26 07:43:38;;;;;;;5.93;4.38;;;9.70;99.90;;;;;;4912286;28;20062;-54
2022/09/26 07:52:13;;;;;;;6.95;4.80;;;9.80;99.90;;;;;;4940666;28;20046;-51
2022/09/26 07:54:48;;;;;;;5.80;4.68;;;9.90;99.90;;;;;;4914849;28;20583;-51
2022/09/26 07:57:18;;;;;;;6.50;4.93;;;9.90;99.90;;;;;;4922969;28;20386;-51
2022/09/26 08:00:11;;;;;;;7.45;4.82;;;10.00;99.90;;;;;;4935110;28;20227;-49
2022/09/26 08:02:47;;;;;;;6.65;4.55;;;10.00;99.90;;;;;;4927226;28;20840;-53
2022/09/26 08:05:18;;;;;;;6.25;4.40;;;10.00;99.90;;;;;;4912307;28;20274;-53
2022/09/26 08:07:48;;;;;;;5.80;4.47;;;10.00;99.90;;;;;;4922664;28;20047;-53
2022/09/26 08:10:35;;;;;;;7.15;4.32;;;10.10;99.90;;;;;;4888161;28;20567;-51
2022/09/26 08:13:21;;;;;;;6.32;3.28;;;10.20;99.90;;;;;;4926767;28;20061;-56
2022/09/26 08:16:23;;;;;;;5.90;4.03;;;10.20;99.90;;;;;;4925692;28;20101;-52
2022/09/26 08:18:54;;;;;;;4.90;2.85;;;10.30;99.90;;;;;;4927939;28;20394;-53
2022/09/26 08:21:23;;;;;;;3.38;3.03;;;10.30;99.90;;;;;;4920160;28;20054;-53
2022/09/26 08:23:53;;;;;;;4.40;3.35;;;10.40;99.90;;;;;;4924307;28;20399;-53
2022/09/26 08:26:39;;;;;;;5.47;3.58;;;10.40;99.90;;;;;;4925119;28;20579;-52
2022/09/26 08:29:15;;;;;;;3.83;3.42;;;10.40;99.90;;;;;;4945302;28;20046;-53
2022/09/26 08:31:44;;;;;;;5.93;3.72;;;10.40;99.90;;;;;;4923031;28;20050;-53
2022/09/26 08:34:12;;;;;;;6.50;4.32;;;10.30;99.90;;;;;;4927714;28;20556;-52
2022/09/26 08:36:40;;;;;;;4.60;3.53;;;10.40;99.90;;;;;;4941787;28;20034;-53
2022/09/26 08:39:21;;;;;;;5.57;3.92;;;10.50;99.90;;;;;;4924972;28;20157;-53
2022/09/26 08:41:51;;;;;;;11.68;4.45;;;10.80;99.90;;;;;;4930177;28;20645;-53
2022/09/26 08:48:59;;;;;;;3.10;2.38;;;11.40;99.90;;;;;;4926594;28;20613;-54
2022/09/26 08:51:37;;;;;;;3.78;2.47;;;11.50;99.90;;;;;;4934775;28;20074;-53
2022/09/26 08:54:38;;;;;;;6.53;1.73;;;11.60;99.90;;;;;;4928067;28;20355;-53
2022/09/26 08:57:50;;;;;;;2.33;2.13;;;11.70;99.90;;;;;;4926122;28;20102;-54
2022/09/26 09:00:25;;;;;;;4.35;2.40;;;11.70;99.90;;;;;;4901116;28;20216;-53
2022/09/26 09:03:34;;;;;;;3.53;2.15;;;11.70;99.90;;;;;;4926124;28;20361;-49
2022/09/26 09:06:11;;;;;;;2.95;2.38;;;11.70;99.90;;;;;;4928017;28;20046;-52
2022/09/26 09:08:47;;;;;;;3.17;2.53;;;11.70;99.90;;;;;;4925360;28;20038;-54
2022/09/26 09:11:45;;;;;;;3.03;2.28;;;11.70;99.90;;;;;;4926436;28;20843;-54
2022/09/26 09:14:40;;;;;;;4.32;2.35;;;11.80;99.90;;;;;;4938525;28;20046;-52
2022/09/26 09:17:59;;;;;;;3.88;2.33;;;11.70;99.90;;;;;;4921673;28;20496;-51
2022/09/26 09:20:56;;;;;;;2.65;2.15;;;11.60;99.90;;;;;;4922737;28;20034;-54
2022/09/26 09:23:44;;;;;;;;;;;11.60;99.90;;;;;;4923751;28;20157;-53
2022/09/26 09:26:25;;;;;;;2.72;1.95;;;11.40;99.90;;;;;;4937865;28;20086;-53
2022/09/26 09:29:34;;;;;;;2.50;1.95;;;11.40;99.90;;;;;;4919123;28;20265;-53
2022/09/26 09:32:43;;;;;;;2.92;2.58;;;11.30;99.90;;;;;;4912616;28;20062;-53
2022/09/26 09:35:30;;;;;;;3.28;1.95;;;11.20;99.90;;;;;;4917238;28;20623;-54
2022/09/26 09:38:18;;;;;;;4.07;2.08;;;11.20;99.90;;;;;;4956423;28;20035;-55
2022/09/26 09:41:12;;;;;;;2.63;2.28;;;11.20;99.90;;;;;;4987925;28;20078;-52
2022/09/26 09:43:46;;;;;;;2.65;2.10;;;11.20;99.90;;;;;;4952540;28;20073;-52
2022/09/26 09:46:14;;;;;;;3.15;2.20;;;11.30;99.90;;;;;;4972390;28;20046;-53
2022/09/26 09:48:42;;;;;;;2.55;2.13;;;11.30;99.90;;;;;;4927175;28;20598;-53
2022/09/26 09:51:15;;;;;;;2.60;2.22;;;11.40;99.90;;;;;;4914178;28;20046;-51
2022/09/26 09:53:47;;;;;;;2.67;2.17;;;11.60;99.90;;;;;;4925001;28;20094;-54
2022/09/26 09:57:06;;;;;;;3.17;2.30;;;11.70;99.90;;;;;;4919062;28;20185;-52
2022/09/26 09:59:34;;;;;;;2.70;2.05;;;11.90;99.90;;;;;;4918206;28;20555;-54
2022/09/26 10:02:19;;;;;;;3.90;1.67;;;12.00;99.90;;;;;;4923222;28;20057;-54
2022/09/26 10:05:07;;;;;;;3.08;2.08;;;12.30;99.90;;;;;;4923790;28;20376;-54
2022/09/26 10:07:34;;;;;;;1.90;1.70;;;12.50;99.90;;;;;;4918249;28;20066;-54
2022/09/26 10:11:27;;;;;;;3.13;2.58;;;12.70;99.90;;;;;;4922177;28;20225;-53
2022/09/26 10:14:02;;;;;;;;;;;12.80;99.90;;;;;;4920675;28;20131;-53
2022/09/26 10:17:24;;;;;;;4.05;2.22;;;12.90;99.90;;;;;;4924890;28;19937;-54
2022/09/26 10:20:03;;;;;;;2.47;2.28;;;13.00;99.90;;;;;;4915385;28;20891;-52
2022/09/26 10:22:43;;;;;;;2.78;2.13;;;13.10;99.90;;;;;;4913120;28;20563;-53
2022/09/26 10:25:24;;;;;;;4.13;2.83;;;13.20;99.90;;;;;;4907979;28;20047;-53
2022/09/26 10:27:54;;;;;;;6.00;2.92;;;13.20;99.90;;;;;;4919082;28;20046;-54
2022/09/26 10:30:30;;;;;;;5.88;2.40;;;13.30;99.90;;;;;;4915985;28;20806;-49
2022/09/26 10:33:34;;;;;;;3.00;2.40;;;13.30;99.90;;;;;;4939672;28;20228;-51
2022/09/26 10:36:26;;;;;;;2.70;2.50;;;13.40;99.90;;;;;;4925456;28;20401;-49
2022/09/26 10:41:57;;;;;;;4.70;2.53;;;13.90;99.90;;;;;;4913872;28;20235;-55
2022/09/26 10:44:27;;;;;;;3.40;2.35;;;14.20;99.90;;;;;;4915304;28;20499;-55
2022/09/26 10:47:17;;;;;;;4.38;2.90;;;14.50;99.90;;;;;;4924244;28;20170;-55
2022/09/26 10:50:24;;;;;;;3.20;2.72;;;14.90;99.90;;;;;;4924870;28;20948;-56
2022/09/26 10:53:39;;;;;;;2.92;2.47;;;15.20;99.90;;;;;;4925801;28;20060;-53
2022/09/26 10:56:15;;;;;;;4.30;2.17;;;15.40;99.90;;;;;;4923339;28;20779;-53
2022/09/26 10:58:45;;;;;;;3.50;2.20;;;15.80;99.90;;;;;;4927073;28;20034;-51
2022/09/26 11:01:24;;;;;;;4.97;3.03;;;15.90;99.90;;;;;;4924654;28;20298;-52
2022/09/26 11:03:58;;;;;;;4.93;2.20;;;16.00;99.90;;;;;;4913969;28;20637;-53
2022/09/26 11:06:25;;;;;;;2.20;2.00;;;16.00;99.90;;;;;;4925271;28;20054;-56
2022/09/26 11:09:02;;;;;;;2.70;2.05;;;16.00;99.90;;;;;;4911603;28;20050;-50
2022/09/26 11:11:50;;;;;;;2.35;2.15;;;15.70;99.90;;;;;;4913746;28;20124;-54
2022/09/26 11:14:29;;;;;;;4.38;2.13;;;15.40;99.90;;;;;;4906638;28;20069;-49
2022/09/26 11:17:02;;;;;;;3.72;2.40;;;15.10;99.90;;;;;;4936797;28;20311;-51
2022/09/26 11:19:57;;;;;;;3.40;2.13;;;14.80;99.90;;;;;;4925180;28;20295;-51
2022/09/26 11:22:36;;;;;;;2.10;1.90;;;14.50;99.90;;;;;;4920112;28;20157;-53
2022/09/26 11:25:23;;;;;;;3.13;2.05;;;14.20;99.90;;;;;;4920392;28;20054;-52
2022/09/26 11:28:03;;;;;;;3.35;2.20;;;13.90;99.90;;;;;;4924548;28;20215;-52
2022/09/26 11:30:49;;;;;;;5.93;2.38;;;13.80;99.90;;;;;;4922351;28;20049;-53
2022/09/26 11:33:20;;;;;;;2.60;2.33;;;13.70;99.90;;;;;;4918621;28;20042;-52
2022/09/26 11:36:38;;;;;;;3.72;2.40;;;13.70;99.90;;;;;;4937015;28;20049;-52
2022/09/26 11:39:32;;;;;;;7.15;2.30;;;13.70;99.90;;;;;;4920498;28;20425;-51
2022/09/26 11:42:12;;;;;;;3.22;2.28;;;13.70;99.90;;;;;;4925895;28;20100;-57
2022/09/26 11:45:08;;;;;;;2.78;2.40;;;13.70;99.90;;;;;;4926331;28;20896;-52
2022/09/26 11:48:12;;;;;;;3.88;2.50;;;13.70;99.90;;;;;;4928107;28;20765;-51
2022/09/26 11:51:39;;;;;;;3.78;2.63;;;13.70;99.90;;;;;;4929857;28;20615;-51
2022/09/26 11:54:24;;;;;;;3.28;2.25;;;13.70;99.90;;;;;;4939977;28;20217;-52
2022/09/26 11:57:10;;;;;;;2.90;2.00;;;13.60;99.90;;;;;;4914882;28;20292;-52
2022/09/26 11:59:40;;;;;;;4.13;2.22;;;13.50;99.90;;;;;;4940891;28;20046;-54
2022/09/26 12:02:16;;;;;;;6.25;2.10;;;13.40;99.90;;;;;;4918654;28;20197;-54
2022/09/26 12:05:14;;;;;;;2.40;1.95;;;13.30;99.90;;;;;;4928097;28;20548;-52
2022/09/26 12:07:59;;;;;;;3.08;2.10;;;13.20;99.90;;;;;;4927972;28;20053;-54
2022/09/26 12:10:55;;;;;;;4.00;2.38;;;13.10;99.90;;;;;;4940972;28;20030;-51
2022/09/26 12:13:55;;;;;;;5.10;2.30;;;13.00;99.90;;;;;;4930873;28;20200;-53
2022/09/26 12:16:29;;;;;;;3.70;1.90;;;13.00;99.90;;;;;;4925962;28;20370;-52
2022/09/26 12:19:12;;;;;;;4.28;2.70;;;13.00;99.90;;;;;;4920219;28;20157;-52
2022/09/26 12:25:06;;;;;;;3.65;2.13;;;13.10;99.90;;;;;;4927995;28;20042;-53
2022/09/26 12:27:43;;;;;;;2.88;2.10;;;13.20;99.90;;;;;;4931215;28;20548;-52
2022/09/26 12:30:28;;;;;;;3.28;2.40;;;13.50;99.90;;;;;;4924054;28;20129;-53
2022/09/26 12:33:21;;;;;;;3.03;1.80;;;13.90;99.90;;;;;;4924430;28;20039;-54
2022/09/26 12:36:08;;;;;;;5.60;2.15;;;14.30;99.90;;;;;;4926564;28;20034;-55
2022/09/26 12:38:51;;;;;;;4.07;1.80;;;14.70;99.90;;;;;;4940030;28;20042;-58
2022/09/26 12:41:54;;;;;;;2.65;1.88;;;15.10;99.90;;;;;;4920993;28;20039;-58
2022/09/26 12:44:46;;;;;;;2.80;1.67;;;15.10;99.90;;;;;;4923145;28;20042;-57
2022/09/26 12:47:22;;;;;;;3.80;1.60;;;15.00;99.90;;;;;;4927370;28;20039;-62
2022/09/26 12:49:58;;;;;;;2.10;1.60;;;14.90;99.90;;;;;;4924559;28;20534;-52
2022/09/26 12:52:49;;;;;;;2.20;1.75;;;14.80;99.90;;;;;;4922816;28;20141;-53
2022/09/26 12:55:23;;;;;;;1.75;1.50;;;14.70;99.90;;;;;;4926157;28;20209;-54
2022/09/26 12:57:52;;;;;;;1.50;1.23;;;14.70;99.90;;;;;;4926625;28;20578;-56
2022/09/26 13:00:21;;;;;;;3.38;1.45;;;14.70;99.90;;;;;;4924671;28;20046;-52
2022/09/26 13:03:15;;;;;;;1.67;1.48;;;14.70;99.90;;;;;;4942178;28;20621;-54
2022/09/26 13:06:19;;;;;;;1.77;1.50;;;14.70;99.90;;;;;;4925136;28;20047;-55
2022/09/26 13:08:56;;;;;;;2.72;1.55;;;14.80;99.90;;;;;;4927238;28;20085;-55
2022/09/26 13:11:32;;;;;;;2.17;1.40;;;15.00;99.90;;;;;;4925145;28;20583;-53
2022/09/26 13:14:29;;;;;;;1.60;1.27;;;15.30;99.80;;;;;;4927903;28;20047;-55
2022/09/26 13:17:05;;;;;;;1.73;1.10;;;15.70;98.10;;;;;;4927961;28;20049;-55
2022/09/26 13:19:42;;;;;;;1.67;1.30;;;16.00;99.90;;;;;;4924667;28;20432;-55
2022/09/26 13:22:12;;;;;;;;;;;16.30;93.80;;;;;;4946345;28;20049;-55
2022/09/26 13:25:01;;;;;;;1.58;1.48;;;16.40;91.00;;;;;;4922516;28;20469;-55
2022/09/26 13:27:36;;;;;;;1.98;1.13;;;16.60;91.40;;;;;;4926899;28;20598;-55
2022/09/26 13:30:12;;;;;;;2.25;1.58;;;16.60;85.60;;;;;;4936611;28;20385;-54
2022/09/26 13:33:00;;;;;;;1.55;1.27;;;16.60;80.60;;;;;;4939259;28;20046;-57
2022/09/26 13:35:35;;;;;;;2.05;1.38;;;16.60;82.50;;;;;;4926603;28;20212;-58
2022/09/26 13:38:13;;;;;;;5.25;1.10;;;16.70;88.90;;;;;;4941165;28;20074;-56
2022/09/26 13:41:08;;;;;;;3.38;1.35;;;16.70;82.90;;;;;;4918792;28;20548;-56
2022/09/26 13:43:47;;;;;;;1.42;1.02;;;16.70;93.60;;;;;;4939853;28;20050;-55
2022/09/26 13:46:31;;;;;;;2.80;1.50;;;16.80;97.30;;;;;;4926191;28;20780;-55
2022/09/26 13:49:23;;;;;;;2.95;1.65;;;16.80;97.90;;;;;;4925102;28;20893;-56
2022/09/26 13:52:11;;;;;;;2.20;0.93;;;16.80;91.90;;;;;;4926196;28;20203;-55
2022/09/26 13:54:44;;;;;;;1.20;1.10;;;16.70;86.60;;;;;;4924788;28;20762;-55
2022/09/26 13:58:05;;;;;;;1.83;1.20;;;16.70;89.50;;;;;;4923023;28;20449;-58
2022/09/26 14:00:39;;;;;;;2.83;1.20;;;16.70;87.80;;;;;;4924678;28;20058;-56
2022/09/26 14:03:16;;;;;;;1.50;1.08;;;16.60;91.60;;;;;;4924314;28;20085;-56
2022/09/26 14:05:43;;;;;;;1.30;1.08;;;16.50;87.40;;;;;;4923816;28;20145;-56
2022/09/26 14:11:47;;;;;;;1.42;1.00;;;16.20;84.80;;;;;;4928352;28;20054;-59
2022/09/26 14:14:18;;;;;;;1.80;1.33;;;15.90;90.20;;;;;;4922770;28;20034;-55
2022/09/26 14:16:51;;;;;;;4.20;1.45;;;15.60;87.20;;;;;;4927784;28;20046;-56
2022/09/26 14:19:27;;;;;;;2.17;0.90;;;15.40;92.30;;;;;;4926395;28;20239;-56